<?xml version="1.0" encoding="UTF-8" standalone="no" ?>
<gpx xmlns="http://www.topografix.com/GPX/1/1" xmlns:xsi="http://www.w3.org/2001/XMLSchema-instance" xsi:schemaLocation="http://www.topografix.com/GPX/1/1 http://www.topografix.com/GPX/1/1/gpx.xsd" version="1.1" creator="VisuGPX - https://www.visugpx.com">
  <metadata>
    <name>20200723 - Sortie route</name>
  </metadata>
  <trk>
    <name><![CDATA[2020-07-23 11:04:35]]></name>
    <trkseg>
      <trkpt lat="50.1248" lon="3.67813">
        <ele>136.16</ele>
        <time>2020-07-23T08:00:49Z</time>
      </trkpt>
      <trkpt lat="50.1248" lon="3.67813">
        <ele>136.16</ele>
        <time>2020-07-23T08:00:54Z</time>
      </trkpt>
      <trkpt lat="50.12485" lon="3.6782">
        <ele>136.16</ele>
        <time>2020-07-23T08:00:58Z</time>
      </trkpt>
      <trkpt lat="50.12486" lon="3.67823">
        <ele>136.16</ele>
        <time>2020-07-23T08:00:59Z</time>
      </trkpt>
      <trkpt lat="50.12488" lon="3.67825">
        <ele>136.16</ele>
        <time>2020-07-23T08:01:00Z</time>
      </trkpt>
      <trkpt lat="50.12491" lon="3.67827">
        <ele>136.16</ele>
        <time>2020-07-23T08:01:01Z</time>
      </trkpt>
      <trkpt lat="50.12546" lon="3.67883">
        <ele>136.64</ele>
        <time>2020-07-23T08:01:18Z</time>
      </trkpt>
      <trkpt lat="50.1257" lon="3.67903">
        <ele>136.64</ele>
        <time>2020-07-23T08:01:24Z</time>
      </trkpt>
      <trkpt lat="50.1262" lon="3.67991">
        <ele>137.13</ele>
        <time>2020-07-23T08:01:41Z</time>
      </trkpt>
      <trkpt lat="50.12664" lon="3.68088">
        <ele>137.13</ele>
        <time>2020-07-23T08:01:56Z</time>
      </trkpt>
      <trkpt lat="50.12669" lon="3.68102">
        <ele>137.13</ele>
        <time>2020-07-23T08:01:58Z</time>
      </trkpt>
      <trkpt lat="50.12719" lon="3.68205">
        <ele>137.13</ele>
        <time>2020-07-23T08:02:15Z</time>
      </trkpt>
      <trkpt lat="50.12722" lon="3.68211">
        <ele>137.13</ele>
        <time>2020-07-23T08:02:16Z</time>
      </trkpt>
      <trkpt lat="50.12747" lon="3.68285">
        <ele>137.61</ele>
        <time>2020-07-23T08:02:28Z</time>
      </trkpt>
      <trkpt lat="50.12786" lon="3.68402">
        <ele>138.09</ele>
        <time>2020-07-23T08:02:47Z</time>
      </trkpt>
      <trkpt lat="50.12797" lon="3.68444">
        <ele>139.05</ele>
        <time>2020-07-23T08:02:55Z</time>
      </trkpt>
      <trkpt lat="50.12795" lon="3.6845">
        <ele>139.05</ele>
        <time>2020-07-23T08:02:56Z</time>
      </trkpt>
      <trkpt lat="50.12792" lon="3.68453">
        <ele>139.05</ele>
        <time>2020-07-23T08:02:57Z</time>
      </trkpt>
      <trkpt lat="50.12764" lon="3.68475">
        <ele>137.61</ele>
        <time>2020-07-23T08:03:04Z</time>
      </trkpt>
      <trkpt lat="50.1274" lon="3.68493">
        <ele>137.61</ele>
        <time>2020-07-23T08:03:09Z</time>
      </trkpt>
      <trkpt lat="50.12735" lon="3.68499">
        <ele>137.61</ele>
        <time>2020-07-23T08:03:10Z</time>
      </trkpt>
      <trkpt lat="50.12732" lon="3.68507">
        <ele>137.13</ele>
        <time>2020-07-23T08:03:11Z</time>
      </trkpt>
      <trkpt lat="50.12732" lon="3.68517">
        <ele>137.13</ele>
        <time>2020-07-23T08:03:12Z</time>
      </trkpt>
      <trkpt lat="50.12735" lon="3.68525">
        <ele>137.13</ele>
        <time>2020-07-23T08:03:13Z</time>
      </trkpt>
      <trkpt lat="50.12737" lon="3.68529">
        <ele>137.13</ele>
        <time>2020-07-23T08:03:14Z</time>
      </trkpt>
      <trkpt lat="50.12741" lon="3.68536">
        <ele>137.13</ele>
        <time>2020-07-23T08:03:15Z</time>
      </trkpt>
      <trkpt lat="50.12748" lon="3.68547">
        <ele>137.13</ele>
        <time>2020-07-23T08:03:17Z</time>
      </trkpt>
      <trkpt lat="50.1275" lon="3.68554">
        <ele>137.13</ele>
        <time>2020-07-23T08:03:18Z</time>
      </trkpt>
      <trkpt lat="50.12751" lon="3.68562">
        <ele>137.13</ele>
        <time>2020-07-23T08:03:19Z</time>
      </trkpt>
      <trkpt lat="50.12749" lon="3.68569">
        <ele>137.13</ele>
        <time>2020-07-23T08:03:20Z</time>
      </trkpt>
      <trkpt lat="50.12746" lon="3.68575">
        <ele>137.13</ele>
        <time>2020-07-23T08:03:21Z</time>
      </trkpt>
      <trkpt lat="50.12743" lon="3.68581">
        <ele>137.13</ele>
        <time>2020-07-23T08:03:22Z</time>
      </trkpt>
      <trkpt lat="50.12705" lon="3.6865">
        <ele>137.13</ele>
        <time>2020-07-23T08:03:33Z</time>
      </trkpt>
      <trkpt lat="50.12703" lon="3.68655">
        <ele>137.13</ele>
        <time>2020-07-23T08:03:34Z</time>
      </trkpt>
      <trkpt lat="50.12702" lon="3.68659">
        <ele>137.13</ele>
        <time>2020-07-23T08:03:35Z</time>
      </trkpt>
      <trkpt lat="50.12704" lon="3.68662">
        <ele>137.13</ele>
        <time>2020-07-23T08:03:36Z</time>
      </trkpt>
      <trkpt lat="50.12707" lon="3.68667">
        <ele>137.13</ele>
        <time>2020-07-23T08:03:37Z</time>
      </trkpt>
      <trkpt lat="50.12711" lon="3.68674">
        <ele>137.13</ele>
        <time>2020-07-23T08:03:38Z</time>
      </trkpt>
      <trkpt lat="50.12724" lon="3.68708">
        <ele>137.13</ele>
        <time>2020-07-23T08:03:43Z</time>
      </trkpt>
      <trkpt lat="50.12722" lon="3.68714">
        <ele>137.13</ele>
        <time>2020-07-23T08:03:44Z</time>
      </trkpt>
      <trkpt lat="50.1272" lon="3.68718">
        <ele>137.13</ele>
        <time>2020-07-23T08:03:45Z</time>
      </trkpt>
      <trkpt lat="50.12717" lon="3.68722">
        <ele>137.13</ele>
        <time>2020-07-23T08:03:46Z</time>
      </trkpt>
      <trkpt lat="50.12713" lon="3.68728">
        <ele>137.13</ele>
        <time>2020-07-23T08:03:47Z</time>
      </trkpt>
      <trkpt lat="50.12693" lon="3.68756">
        <ele>138.57</ele>
        <time>2020-07-23T08:03:53Z</time>
      </trkpt>
      <trkpt lat="50.12651" lon="3.68811">
        <ele>139.53</ele>
        <time>2020-07-23T08:04:05Z</time>
      </trkpt>
      <trkpt lat="50.12647" lon="3.68813">
        <ele>139.53</ele>
        <time>2020-07-23T08:04:06Z</time>
      </trkpt>
      <trkpt lat="50.12643" lon="3.68815">
        <ele>139.53</ele>
        <time>2020-07-23T08:04:07Z</time>
      </trkpt>
      <trkpt lat="50.12561" lon="3.68856">
        <ele>137.61</ele>
        <time>2020-07-23T08:04:22Z</time>
      </trkpt>
      <trkpt lat="50.12529" lon="3.68882">
        <ele>139.05</ele>
        <time>2020-07-23T08:04:29Z</time>
      </trkpt>
      <trkpt lat="50.12496" lon="3.68916">
        <ele>139.05</ele>
        <time>2020-07-23T08:04:36Z</time>
      </trkpt>
      <trkpt lat="50.12493" lon="3.68921">
        <ele>139.05</ele>
        <time>2020-07-23T08:04:37Z</time>
      </trkpt>
      <trkpt lat="50.1249" lon="3.68926">
        <ele>139.05</ele>
        <time>2020-07-23T08:04:38Z</time>
      </trkpt>
      <trkpt lat="50.12484" lon="3.68935">
        <ele>139.05</ele>
        <time>2020-07-23T08:04:40Z</time>
      </trkpt>
      <trkpt lat="50.12443" lon="3.69001">
        <ele>139.05</ele>
        <time>2020-07-23T08:04:52Z</time>
      </trkpt>
      <trkpt lat="50.12396" lon="3.69097">
        <ele>139.05</ele>
        <time>2020-07-23T08:05:07Z</time>
      </trkpt>
      <trkpt lat="50.12382" lon="3.69127">
        <ele>139.05</ele>
        <time>2020-07-23T08:05:12Z</time>
      </trkpt>
      <trkpt lat="50.1238" lon="3.69134">
        <ele>139.05</ele>
        <time>2020-07-23T08:05:13Z</time>
      </trkpt>
      <trkpt lat="50.12378" lon="3.69141">
        <ele>139.05</ele>
        <time>2020-07-23T08:05:14Z</time>
      </trkpt>
      <trkpt lat="50.12377" lon="3.6915">
        <ele>139.05</ele>
        <time>2020-07-23T08:05:15Z</time>
      </trkpt>
      <trkpt lat="50.12375" lon="3.69158">
        <ele>139.53</ele>
        <time>2020-07-23T08:05:16Z</time>
      </trkpt>
      <trkpt lat="50.12374" lon="3.69163">
        <ele>139.53</ele>
        <time>2020-07-23T08:05:17Z</time>
      </trkpt>
      <trkpt lat="50.12362" lon="3.69199">
        <ele>139.53</ele>
        <time>2020-07-23T08:05:22Z</time>
      </trkpt>
      <trkpt lat="50.12352" lon="3.6922">
        <ele>139.53</ele>
        <time>2020-07-23T08:05:25Z</time>
      </trkpt>
      <trkpt lat="50.12349" lon="3.69226">
        <ele>139.53</ele>
        <time>2020-07-23T08:05:26Z</time>
      </trkpt>
      <trkpt lat="50.12286" lon="3.69323">
        <ele>140.49</ele>
        <time>2020-07-23T08:05:42Z</time>
      </trkpt>
      <trkpt lat="50.12264" lon="3.69356">
        <ele>140.49</ele>
        <time>2020-07-23T08:05:48Z</time>
      </trkpt>
      <trkpt lat="50.1226" lon="3.69359">
        <ele>140.49</ele>
        <time>2020-07-23T08:05:49Z</time>
      </trkpt>
      <trkpt lat="50.12255" lon="3.69356">
        <ele>140.97</ele>
        <time>2020-07-23T08:05:50Z</time>
      </trkpt>
      <trkpt lat="50.12251" lon="3.69348">
        <ele>140.97</ele>
        <time>2020-07-23T08:05:51Z</time>
      </trkpt>
      <trkpt lat="50.12249" lon="3.69341">
        <ele>140.97</ele>
        <time>2020-07-23T08:05:52Z</time>
      </trkpt>
      <trkpt lat="50.12247" lon="3.69335">
        <ele>140.97</ele>
        <time>2020-07-23T08:05:53Z</time>
      </trkpt>
      <trkpt lat="50.12244" lon="3.69328">
        <ele>140.97</ele>
        <time>2020-07-23T08:05:54Z</time>
      </trkpt>
      <trkpt lat="50.12241" lon="3.69321">
        <ele>140.97</ele>
        <time>2020-07-23T08:05:55Z</time>
      </trkpt>
      <trkpt lat="50.1218" lon="3.69231">
        <ele>141.93</ele>
        <time>2020-07-23T08:06:11Z</time>
      </trkpt>
      <trkpt lat="50.12176" lon="3.69229">
        <ele>141.93</ele>
        <time>2020-07-23T08:06:12Z</time>
      </trkpt>
      <trkpt lat="50.12171" lon="3.69226">
        <ele>141.93</ele>
        <time>2020-07-23T08:06:13Z</time>
      </trkpt>
      <trkpt lat="50.12167" lon="3.69222">
        <ele>141.93</ele>
        <time>2020-07-23T08:06:14Z</time>
      </trkpt>
      <trkpt lat="50.12163" lon="3.69218">
        <ele>141.93</ele>
        <time>2020-07-23T08:06:15Z</time>
      </trkpt>
      <trkpt lat="50.12091" lon="3.69159">
        <ele>143.37</ele>
        <time>2020-07-23T08:06:33Z</time>
      </trkpt>
      <trkpt lat="50.12087" lon="3.69156">
        <ele>143.37</ele>
        <time>2020-07-23T08:06:34Z</time>
      </trkpt>
      <trkpt lat="50.1202" lon="3.69105">
        <ele>144.82</ele>
        <time>2020-07-23T08:06:51Z</time>
      </trkpt>
      <trkpt lat="50.11977" lon="3.69074">
        <ele>145.3</ele>
        <time>2020-07-23T08:07:01Z</time>
      </trkpt>
      <trkpt lat="50.11973" lon="3.69072">
        <ele>145.3</ele>
        <time>2020-07-23T08:07:02Z</time>
      </trkpt>
      <trkpt lat="50.11936" lon="3.69044">
        <ele>145.78</ele>
        <time>2020-07-23T08:07:11Z</time>
      </trkpt>
      <trkpt lat="50.11868" lon="3.68989">
        <ele>146.74</ele>
        <time>2020-07-23T08:07:27Z</time>
      </trkpt>
      <trkpt lat="50.11863" lon="3.68986">
        <ele>146.74</ele>
        <time>2020-07-23T08:07:28Z</time>
      </trkpt>
      <trkpt lat="50.11774" lon="3.6891">
        <ele>144.82</ele>
        <time>2020-07-23T08:07:46Z</time>
      </trkpt>
      <trkpt lat="50.11698" lon="3.68817">
        <ele>141.45</ele>
        <time>2020-07-23T08:07:59Z</time>
      </trkpt>
      <trkpt lat="50.11643" lon="3.68748">
        <ele>140.49</ele>
        <time>2020-07-23T08:08:08Z</time>
      </trkpt>
      <trkpt lat="50.11639" lon="3.68738">
        <ele>140.49</ele>
        <time>2020-07-23T08:08:09Z</time>
      </trkpt>
      <trkpt lat="50.11609" lon="3.68685">
        <ele>140.01</ele>
        <time>2020-07-23T08:08:15Z</time>
      </trkpt>
      <trkpt lat="50.11603" lon="3.68678">
        <ele>140.01</ele>
        <time>2020-07-23T08:08:16Z</time>
      </trkpt>
      <trkpt lat="50.11598" lon="3.68671">
        <ele>140.01</ele>
        <time>2020-07-23T08:08:17Z</time>
      </trkpt>
      <trkpt lat="50.11514" lon="3.686">
        <ele>139.05</ele>
        <time>2020-07-23T08:08:33Z</time>
      </trkpt>
      <trkpt lat="50.11428" lon="3.68526">
        <ele>138.57</ele>
        <time>2020-07-23T08:08:51Z</time>
      </trkpt>
      <trkpt lat="50.11388" lon="3.68491">
        <ele>138.57</ele>
        <time>2020-07-23T08:09:01Z</time>
      </trkpt>
      <trkpt lat="50.11319" lon="3.68465">
        <ele>140.01</ele>
        <time>2020-07-23T08:09:16Z</time>
      </trkpt>
      <trkpt lat="50.11315" lon="3.68463">
        <ele>140.01</ele>
        <time>2020-07-23T08:09:17Z</time>
      </trkpt>
      <trkpt lat="50.1131" lon="3.68462">
        <ele>140.01</ele>
        <time>2020-07-23T08:09:18Z</time>
      </trkpt>
      <trkpt lat="50.11301" lon="3.6846">
        <ele>140.01</ele>
        <time>2020-07-23T08:09:20Z</time>
      </trkpt>
      <trkpt lat="50.11282" lon="3.68455">
        <ele>140.49</ele>
        <time>2020-07-23T08:09:24Z</time>
      </trkpt>
      <trkpt lat="50.1126" lon="3.68444">
        <ele>140.49</ele>
        <time>2020-07-23T08:09:29Z</time>
      </trkpt>
      <trkpt lat="50.11247" lon="3.68433">
        <ele>140.97</ele>
        <time>2020-07-23T08:09:32Z</time>
      </trkpt>
      <trkpt lat="50.11181" lon="3.68361">
        <ele>141.93</ele>
        <time>2020-07-23T08:09:49Z</time>
      </trkpt>
      <trkpt lat="50.11105" lon="3.68278">
        <ele>143.37</ele>
        <time>2020-07-23T08:10:07Z</time>
      </trkpt>
      <trkpt lat="50.11094" lon="3.68265">
        <ele>143.85</ele>
        <time>2020-07-23T08:10:10Z</time>
      </trkpt>
      <trkpt lat="50.11091" lon="3.6826">
        <ele>143.85</ele>
        <time>2020-07-23T08:10:11Z</time>
      </trkpt>
      <trkpt lat="50.11087" lon="3.68254">
        <ele>144.34</ele>
        <time>2020-07-23T08:10:12Z</time>
      </trkpt>
      <trkpt lat="50.11052" lon="3.68144">
        <ele>144.82</ele>
        <time>2020-07-23T08:10:28Z</time>
      </trkpt>
      <trkpt lat="50.11044" lon="3.68099">
        <ele>145.3</ele>
        <time>2020-07-23T08:10:34Z</time>
      </trkpt>
      <trkpt lat="50.11043" lon="3.68091">
        <ele>145.3</ele>
        <time>2020-07-23T08:10:35Z</time>
      </trkpt>
      <trkpt lat="50.11044" lon="3.68082">
        <ele>145.3</ele>
        <time>2020-07-23T08:10:36Z</time>
      </trkpt>
      <trkpt lat="50.11055" lon="3.67985">
        <ele>143.85</ele>
        <time>2020-07-23T08:10:47Z</time>
      </trkpt>
      <trkpt lat="50.11045" lon="3.6783">
        <ele>141.93</ele>
        <time>2020-07-23T08:11:02Z</time>
      </trkpt>
      <trkpt lat="50.11017" lon="3.67708">
        <ele>143.37</ele>
        <time>2020-07-23T08:11:15Z</time>
      </trkpt>
      <trkpt lat="50.10971" lon="3.67583">
        <ele>144.82</ele>
        <time>2020-07-23T08:11:30Z</time>
      </trkpt>
      <trkpt lat="50.10935" lon="3.67495">
        <ele>146.74</ele>
        <time>2020-07-23T08:11:43Z</time>
      </trkpt>
      <trkpt lat="50.10886" lon="3.67354">
        <ele>147.22</ele>
        <time>2020-07-23T08:12:02Z</time>
      </trkpt>
      <trkpt lat="50.10884" lon="3.67346">
        <ele>147.22</ele>
        <time>2020-07-23T08:12:03Z</time>
      </trkpt>
      <trkpt lat="50.10849" lon="3.67218">
        <ele>148.66</ele>
        <time>2020-07-23T08:12:20Z</time>
      </trkpt>
      <trkpt lat="50.10828" lon="3.67099">
        <ele>150.1</ele>
        <time>2020-07-23T08:12:37Z</time>
      </trkpt>
      <trkpt lat="50.10804" lon="3.66974">
        <ele>150.1</ele>
        <time>2020-07-23T08:12:52Z</time>
      </trkpt>
      <trkpt lat="50.10764" lon="3.66843">
        <ele>147.7</ele>
        <time>2020-07-23T08:13:06Z</time>
      </trkpt>
      <trkpt lat="50.1076" lon="3.66834">
        <ele>147.7</ele>
        <time>2020-07-23T08:13:07Z</time>
      </trkpt>
      <trkpt lat="50.10756" lon="3.66826">
        <ele>147.7</ele>
        <time>2020-07-23T08:13:08Z</time>
      </trkpt>
      <trkpt lat="50.10751" lon="3.66817">
        <ele>147.7</ele>
        <time>2020-07-23T08:13:09Z</time>
      </trkpt>
      <trkpt lat="50.10747" lon="3.66809">
        <ele>149.14</ele>
        <time>2020-07-23T08:13:10Z</time>
      </trkpt>
      <trkpt lat="50.10731" lon="3.66779">
        <ele>149.62</ele>
        <time>2020-07-23T08:13:14Z</time>
      </trkpt>
      <trkpt lat="50.10726" lon="3.66771">
        <ele>149.62</ele>
        <time>2020-07-23T08:13:15Z</time>
      </trkpt>
      <trkpt lat="50.10714" lon="3.66747">
        <ele>150.1</ele>
        <time>2020-07-23T08:13:18Z</time>
      </trkpt>
      <trkpt lat="50.10666" lon="3.66636">
        <ele>152.99</ele>
        <time>2020-07-23T08:13:32Z</time>
      </trkpt>
      <trkpt lat="50.10628" lon="3.66551">
        <ele>153.47</ele>
        <time>2020-07-23T08:13:43Z</time>
      </trkpt>
      <trkpt lat="50.10587" lon="3.66389">
        <ele>154.43</ele>
        <time>2020-07-23T08:14:00Z</time>
      </trkpt>
      <trkpt lat="50.10563" lon="3.66272">
        <ele>155.87</ele>
        <time>2020-07-23T08:14:13Z</time>
      </trkpt>
      <trkpt lat="50.10544" lon="3.66188">
        <ele>156.83</ele>
        <time>2020-07-23T08:14:23Z</time>
      </trkpt>
      <trkpt lat="50.10514" lon="3.66049">
        <ele>156.35</ele>
        <time>2020-07-23T08:14:38Z</time>
      </trkpt>
      <trkpt lat="50.10481" lon="3.65905">
        <ele>155.87</ele>
        <time>2020-07-23T08:14:52Z</time>
      </trkpt>
      <trkpt lat="50.1045" lon="3.65768">
        <ele>156.83</ele>
        <time>2020-07-23T08:15:06Z</time>
      </trkpt>
      <trkpt lat="50.10441" lon="3.65723">
        <ele>158.27</ele>
        <time>2020-07-23T08:15:11Z</time>
      </trkpt>
      <trkpt lat="50.10433" lon="3.6569">
        <ele>158.27</ele>
        <time>2020-07-23T08:15:15Z</time>
      </trkpt>
      <trkpt lat="50.10431" lon="3.65681">
        <ele>158.27</ele>
        <time>2020-07-23T08:15:16Z</time>
      </trkpt>
      <trkpt lat="50.1039" lon="3.65535">
        <ele>155.87</ele>
        <time>2020-07-23T08:15:31Z</time>
      </trkpt>
      <trkpt lat="50.10345" lon="3.65389">
        <ele>154.91</ele>
        <time>2020-07-23T08:15:45Z</time>
      </trkpt>
      <trkpt lat="50.1034" lon="3.6538">
        <ele>154.91</ele>
        <time>2020-07-23T08:15:46Z</time>
      </trkpt>
      <trkpt lat="50.10334" lon="3.65372">
        <ele>154.91</ele>
        <time>2020-07-23T08:15:47Z</time>
      </trkpt>
      <trkpt lat="50.10264" lon="3.65285">
        <ele>156.35</ele>
        <time>2020-07-23T08:16:00Z</time>
      </trkpt>
      <trkpt lat="50.10189" lon="3.65216">
        <ele>157.79</ele>
        <time>2020-07-23T08:16:15Z</time>
      </trkpt>
      <trkpt lat="50.10165" lon="3.65196">
        <ele>158.27</ele>
        <time>2020-07-23T08:16:20Z</time>
      </trkpt>
      <trkpt lat="50.10161" lon="3.6519">
        <ele>158.27</ele>
        <time>2020-07-23T08:16:21Z</time>
      </trkpt>
      <trkpt lat="50.10158" lon="3.65183">
        <ele>158.27</ele>
        <time>2020-07-23T08:16:22Z</time>
      </trkpt>
      <trkpt lat="50.10113" lon="3.65068">
        <ele>157.79</ele>
        <time>2020-07-23T08:16:36Z</time>
      </trkpt>
      <trkpt lat="50.10061" lon="3.64914">
        <ele>157.31</ele>
        <time>2020-07-23T08:16:51Z</time>
      </trkpt>
      <trkpt lat="50.10024" lon="3.64779">
        <ele>155.39</ele>
        <time>2020-07-23T08:17:03Z</time>
      </trkpt>
      <trkpt lat="50.10017" lon="3.6465">
        <ele>153.47</ele>
        <time>2020-07-23T08:17:13Z</time>
      </trkpt>
      <trkpt lat="50.10014" lon="3.64637">
        <ele>152.51</ele>
        <time>2020-07-23T08:17:14Z</time>
      </trkpt>
      <trkpt lat="50.09958" lon="3.64486">
        <ele>150.58</ele>
        <time>2020-07-23T08:17:27Z</time>
      </trkpt>
      <trkpt lat="50.0989" lon="3.64368">
        <ele>149.14</ele>
        <time>2020-07-23T08:17:40Z</time>
      </trkpt>
      <trkpt lat="50.0981" lon="3.64215">
        <ele>147.22</ele>
        <time>2020-07-23T08:17:56Z</time>
      </trkpt>
      <trkpt lat="50.09807" lon="3.64204">
        <ele>147.22</ele>
        <time>2020-07-23T08:17:57Z</time>
      </trkpt>
      <trkpt lat="50.09806" lon="3.64192">
        <ele>146.26</ele>
        <time>2020-07-23T08:17:58Z</time>
      </trkpt>
      <trkpt lat="50.09806" lon="3.6418">
        <ele>145.78</ele>
        <time>2020-07-23T08:17:59Z</time>
      </trkpt>
      <trkpt lat="50.09807" lon="3.64169">
        <ele>145.78</ele>
        <time>2020-07-23T08:18:00Z</time>
      </trkpt>
      <trkpt lat="50.09808" lon="3.64157">
        <ele>145.78</ele>
        <time>2020-07-23T08:18:01Z</time>
      </trkpt>
      <trkpt lat="50.09835" lon="3.64033">
        <ele>143.85</ele>
        <time>2020-07-23T08:18:12Z</time>
      </trkpt>
      <trkpt lat="50.09836" lon="3.64022">
        <ele>143.85</ele>
        <time>2020-07-23T08:18:13Z</time>
      </trkpt>
      <trkpt lat="50.09839" lon="3.63894">
        <ele>141.45</ele>
        <time>2020-07-23T08:18:24Z</time>
      </trkpt>
      <trkpt lat="50.09883" lon="3.63727">
        <ele>138.09</ele>
        <time>2020-07-23T08:18:37Z</time>
      </trkpt>
      <trkpt lat="50.09922" lon="3.63576">
        <ele>137.61</ele>
        <time>2020-07-23T08:18:50Z</time>
      </trkpt>
      <trkpt lat="50.09929" lon="3.6356">
        <ele>139.05</ele>
        <time>2020-07-23T08:18:52Z</time>
      </trkpt>
      <trkpt lat="50.09933" lon="3.63551">
        <ele>139.53</ele>
        <time>2020-07-23T08:18:53Z</time>
      </trkpt>
      <trkpt lat="50.09936" lon="3.63544">
        <ele>140.01</ele>
        <time>2020-07-23T08:18:54Z</time>
      </trkpt>
      <trkpt lat="50.09943" lon="3.63529">
        <ele>140.01</ele>
        <time>2020-07-23T08:18:56Z</time>
      </trkpt>
      <trkpt lat="50.09948" lon="3.63511">
        <ele>140.01</ele>
        <time>2020-07-23T08:18:58Z</time>
      </trkpt>
      <trkpt lat="50.09951" lon="3.63501">
        <ele>139.05</ele>
        <time>2020-07-23T08:18:59Z</time>
      </trkpt>
      <trkpt lat="50.09975" lon="3.63429">
        <ele>137.13</ele>
        <time>2020-07-23T08:19:06Z</time>
      </trkpt>
      <trkpt lat="50.09981" lon="3.63421">
        <ele>136.64</ele>
        <time>2020-07-23T08:19:07Z</time>
      </trkpt>
      <trkpt lat="50.09986" lon="3.63412">
        <ele>136.64</ele>
        <time>2020-07-23T08:19:08Z</time>
      </trkpt>
      <trkpt lat="50.09991" lon="3.63402">
        <ele>136.16</ele>
        <time>2020-07-23T08:19:09Z</time>
      </trkpt>
      <trkpt lat="50.09993" lon="3.63391">
        <ele>136.16</ele>
        <time>2020-07-23T08:19:10Z</time>
      </trkpt>
      <trkpt lat="50.09994" lon="3.63381">
        <ele>136.16</ele>
        <time>2020-07-23T08:19:11Z</time>
      </trkpt>
      <trkpt lat="50.09992" lon="3.6337">
        <ele>136.16</ele>
        <time>2020-07-23T08:19:12Z</time>
      </trkpt>
      <trkpt lat="50.09988" lon="3.6336">
        <ele>136.16</ele>
        <time>2020-07-23T08:19:13Z</time>
      </trkpt>
      <trkpt lat="50.09984" lon="3.63351">
        <ele>136.64</ele>
        <time>2020-07-23T08:19:14Z</time>
      </trkpt>
      <trkpt lat="50.09978" lon="3.63343">
        <ele>136.64</ele>
        <time>2020-07-23T08:19:15Z</time>
      </trkpt>
      <trkpt lat="50.09973" lon="3.63336">
        <ele>136.64</ele>
        <time>2020-07-23T08:19:16Z</time>
      </trkpt>
      <trkpt lat="50.09967" lon="3.6333">
        <ele>136.64</ele>
        <time>2020-07-23T08:19:17Z</time>
      </trkpt>
      <trkpt lat="50.09946" lon="3.63304">
        <ele>136.64</ele>
        <time>2020-07-23T08:19:21Z</time>
      </trkpt>
      <trkpt lat="50.09942" lon="3.63296">
        <ele>136.64</ele>
        <time>2020-07-23T08:19:22Z</time>
      </trkpt>
      <trkpt lat="50.09939" lon="3.63287">
        <ele>136.64</ele>
        <time>2020-07-23T08:19:23Z</time>
      </trkpt>
      <trkpt lat="50.09936" lon="3.63278">
        <ele>136.64</ele>
        <time>2020-07-23T08:19:24Z</time>
      </trkpt>
      <trkpt lat="50.09934" lon="3.63269">
        <ele>137.61</ele>
        <time>2020-07-23T08:19:25Z</time>
      </trkpt>
      <trkpt lat="50.09933" lon="3.63259">
        <ele>137.61</ele>
        <time>2020-07-23T08:19:26Z</time>
      </trkpt>
      <trkpt lat="50.09917" lon="3.63148">
        <ele>137.61</ele>
        <time>2020-07-23T08:19:37Z</time>
      </trkpt>
      <trkpt lat="50.09914" lon="3.63139">
        <ele>137.61</ele>
        <time>2020-07-23T08:19:38Z</time>
      </trkpt>
      <trkpt lat="50.09874" lon="3.63036">
        <ele>137.61</ele>
        <time>2020-07-23T08:19:51Z</time>
      </trkpt>
      <trkpt lat="50.09833" lon="3.62975">
        <ele>137.61</ele>
        <time>2020-07-23T08:20:01Z</time>
      </trkpt>
      <trkpt lat="50.09829" lon="3.6297">
        <ele>137.61</ele>
        <time>2020-07-23T08:20:02Z</time>
      </trkpt>
      <trkpt lat="50.09776" lon="3.62876">
        <ele>137.61</ele>
        <time>2020-07-23T08:20:16Z</time>
      </trkpt>
      <trkpt lat="50.09717" lon="3.62793">
        <ele>138.09</ele>
        <time>2020-07-23T08:20:31Z</time>
      </trkpt>
      <trkpt lat="50.09635" lon="3.62691">
        <ele>139.05</ele>
        <time>2020-07-23T08:20:49Z</time>
      </trkpt>
      <trkpt lat="50.09562" lon="3.62599">
        <ele>139.53</ele>
        <time>2020-07-23T08:21:05Z</time>
      </trkpt>
      <trkpt lat="50.09481" lon="3.6251">
        <ele>139.53</ele>
        <time>2020-07-23T08:21:22Z</time>
      </trkpt>
      <trkpt lat="50.09421" lon="3.62422">
        <ele>140.49</ele>
        <time>2020-07-23T08:21:36Z</time>
      </trkpt>
      <trkpt lat="50.09408" lon="3.62371">
        <ele>140.49</ele>
        <time>2020-07-23T08:21:42Z</time>
      </trkpt>
      <trkpt lat="50.09407" lon="3.62362">
        <ele>140.49</ele>
        <time>2020-07-23T08:21:43Z</time>
      </trkpt>
      <trkpt lat="50.09407" lon="3.62352">
        <ele>140.49</ele>
        <time>2020-07-23T08:21:44Z</time>
      </trkpt>
      <trkpt lat="50.09407" lon="3.62344">
        <ele>141.45</ele>
        <time>2020-07-23T08:21:45Z</time>
      </trkpt>
      <trkpt lat="50.09407" lon="3.62335">
        <ele>141.45</ele>
        <time>2020-07-23T08:21:46Z</time>
      </trkpt>
      <trkpt lat="50.09409" lon="3.62327">
        <ele>141.45</ele>
        <time>2020-07-23T08:21:47Z</time>
      </trkpt>
      <trkpt lat="50.09411" lon="3.62319">
        <ele>141.45</ele>
        <time>2020-07-23T08:21:48Z</time>
      </trkpt>
      <trkpt lat="50.0943" lon="3.62218">
        <ele>142.89</ele>
        <time>2020-07-23T08:22:00Z</time>
      </trkpt>
      <trkpt lat="50.09432" lon="3.62202">
        <ele>142.89</ele>
        <time>2020-07-23T08:22:02Z</time>
      </trkpt>
      <trkpt lat="50.09428" lon="3.62076">
        <ele>145.3</ele>
        <time>2020-07-23T08:22:17Z</time>
      </trkpt>
      <trkpt lat="50.09398" lon="3.61947">
        <ele>146.74</ele>
        <time>2020-07-23T08:22:34Z</time>
      </trkpt>
      <trkpt lat="50.09371" lon="3.61837">
        <ele>150.1</ele>
        <time>2020-07-23T08:22:48Z</time>
      </trkpt>
      <trkpt lat="50.09365" lon="3.6181">
        <ele>150.1</ele>
        <time>2020-07-23T08:22:52Z</time>
      </trkpt>
      <trkpt lat="50.09364" lon="3.61803">
        <ele>150.58</ele>
        <time>2020-07-23T08:22:53Z</time>
      </trkpt>
      <trkpt lat="50.09345" lon="3.61728">
        <ele>151.54</ele>
        <time>2020-07-23T08:23:04Z</time>
      </trkpt>
      <trkpt lat="50.09344" lon="3.61719">
        <ele>151.54</ele>
        <time>2020-07-23T08:23:05Z</time>
      </trkpt>
      <trkpt lat="50.09305" lon="3.61553">
        <ele>151.54</ele>
        <time>2020-07-23T08:23:26Z</time>
      </trkpt>
      <trkpt lat="50.09261" lon="3.61363">
        <ele>151.54</ele>
        <time>2020-07-23T08:23:49Z</time>
      </trkpt>
      <trkpt lat="50.0924" lon="3.6126">
        <ele>152.03</ele>
        <time>2020-07-23T08:24:02Z</time>
      </trkpt>
      <trkpt lat="50.09239" lon="3.61252">
        <ele>152.03</ele>
        <time>2020-07-23T08:24:03Z</time>
      </trkpt>
      <trkpt lat="50.09226" lon="3.61188">
        <ele>150.58</ele>
        <time>2020-07-23T08:24:10Z</time>
      </trkpt>
      <trkpt lat="50.092" lon="3.61107">
        <ele>147.7</ele>
        <time>2020-07-23T08:24:18Z</time>
      </trkpt>
      <trkpt lat="50.09198" lon="3.61096">
        <ele>147.7</ele>
        <time>2020-07-23T08:24:19Z</time>
      </trkpt>
      <trkpt lat="50.09187" lon="3.60936">
        <ele>145.3</ele>
        <time>2020-07-23T08:24:32Z</time>
      </trkpt>
      <trkpt lat="50.09186" lon="3.60742">
        <ele>143.85</ele>
        <time>2020-07-23T08:24:50Z</time>
      </trkpt>
      <trkpt lat="50.09185" lon="3.60573">
        <ele>143.37</ele>
        <time>2020-07-23T08:25:08Z</time>
      </trkpt>
      <trkpt lat="50.09184" lon="3.60503">
        <ele>144.82</ele>
        <time>2020-07-23T08:25:17Z</time>
      </trkpt>
      <trkpt lat="50.09184" lon="3.60354">
        <ele>146.74</ele>
        <time>2020-07-23T08:25:36Z</time>
      </trkpt>
      <trkpt lat="50.09183" lon="3.60212">
        <ele>144.82</ele>
        <time>2020-07-23T08:25:52Z</time>
      </trkpt>
      <trkpt lat="50.0918" lon="3.60066">
        <ele>141.45</ele>
        <time>2020-07-23T08:26:04Z</time>
      </trkpt>
      <trkpt lat="50.09189" lon="3.59958">
        <ele>138.09</ele>
        <time>2020-07-23T08:26:12Z</time>
      </trkpt>
      <trkpt lat="50.0919" lon="3.59945">
        <ele>138.09</ele>
        <time>2020-07-23T08:26:13Z</time>
      </trkpt>
      <trkpt lat="50.09195" lon="3.59844">
        <ele>135.2</ele>
        <time>2020-07-23T08:26:20Z</time>
      </trkpt>
      <trkpt lat="50.09182" lon="3.59663">
        <ele>133.28</ele>
        <time>2020-07-23T08:26:34Z</time>
      </trkpt>
      <trkpt lat="50.09185" lon="3.59513">
        <ele>132.8</ele>
        <time>2020-07-23T08:26:47Z</time>
      </trkpt>
      <trkpt lat="50.09174" lon="3.5938">
        <ele>136.16</ele>
        <time>2020-07-23T08:27:00Z</time>
      </trkpt>
      <trkpt lat="50.09166" lon="3.59282">
        <ele>139.53</ele>
        <time>2020-07-23T08:27:13Z</time>
      </trkpt>
      <trkpt lat="50.09164" lon="3.59251">
        <ele>140.01</ele>
        <time>2020-07-23T08:27:20Z</time>
      </trkpt>
      <trkpt lat="50.09162" lon="3.59247">
        <ele>140.01</ele>
        <time>2020-07-23T08:27:21Z</time>
      </trkpt>
      <trkpt lat="50.09161" lon="3.59241">
        <ele>140.01</ele>
        <time>2020-07-23T08:27:22Z</time>
      </trkpt>
      <trkpt lat="50.09161" lon="3.59234">
        <ele>140.49</ele>
        <time>2020-07-23T08:27:23Z</time>
      </trkpt>
      <trkpt lat="50.09161" lon="3.59229">
        <ele>140.49</ele>
        <time>2020-07-23T08:27:24Z</time>
      </trkpt>
      <trkpt lat="50.09161" lon="3.59223">
        <ele>140.49</ele>
        <time>2020-07-23T08:27:25Z</time>
      </trkpt>
      <trkpt lat="50.09175" lon="3.59114">
        <ele>140.49</ele>
        <time>2020-07-23T08:27:39Z</time>
      </trkpt>
      <trkpt lat="50.09175" lon="3.59105">
        <ele>140.49</ele>
        <time>2020-07-23T08:27:40Z</time>
      </trkpt>
      <trkpt lat="50.09176" lon="3.59095">
        <ele>140.49</ele>
        <time>2020-07-23T08:27:41Z</time>
      </trkpt>
      <trkpt lat="50.09177" lon="3.59086">
        <ele>139.05</ele>
        <time>2020-07-23T08:27:42Z</time>
      </trkpt>
      <trkpt lat="50.09179" lon="3.59076">
        <ele>139.05</ele>
        <time>2020-07-23T08:27:43Z</time>
      </trkpt>
      <trkpt lat="50.09193" lon="3.58967">
        <ele>136.16</ele>
        <time>2020-07-23T08:27:53Z</time>
      </trkpt>
      <trkpt lat="50.09193" lon="3.58956">
        <ele>135.2</ele>
        <time>2020-07-23T08:27:54Z</time>
      </trkpt>
      <trkpt lat="50.09193" lon="3.58879">
        <ele>132.8</ele>
        <time>2020-07-23T08:28:00Z</time>
      </trkpt>
      <trkpt lat="50.09195" lon="3.58867">
        <ele>132.8</ele>
        <time>2020-07-23T08:28:01Z</time>
      </trkpt>
      <trkpt lat="50.09253" lon="3.58678">
        <ele>130.88</ele>
        <time>2020-07-23T08:28:18Z</time>
      </trkpt>
      <trkpt lat="50.09259" lon="3.5866">
        <ele>131.84</ele>
        <time>2020-07-23T08:28:20Z</time>
      </trkpt>
      <trkpt lat="50.09288" lon="3.58564">
        <ele>134.24</ele>
        <time>2020-07-23T08:28:33Z</time>
      </trkpt>
      <trkpt lat="50.09322" lon="3.58452">
        <ele>137.13</ele>
        <time>2020-07-23T08:28:48Z</time>
      </trkpt>
      <trkpt lat="50.09352" lon="3.58354">
        <ele>140.01</ele>
        <time>2020-07-23T08:29:03Z</time>
      </trkpt>
      <trkpt lat="50.09391" lon="3.58228">
        <ele>140.49</ele>
        <time>2020-07-23T08:29:21Z</time>
      </trkpt>
      <trkpt lat="50.09433" lon="3.58091">
        <ele>140.49</ele>
        <time>2020-07-23T08:29:37Z</time>
      </trkpt>
      <trkpt lat="50.09458" lon="3.58009">
        <ele>139.05</ele>
        <time>2020-07-23T08:29:46Z</time>
      </trkpt>
      <trkpt lat="50.09505" lon="3.57856">
        <ele>135.68</ele>
        <time>2020-07-23T08:30:01Z</time>
      </trkpt>
      <trkpt lat="50.0954" lon="3.5774">
        <ele>132.32</ele>
        <time>2020-07-23T08:30:11Z</time>
      </trkpt>
      <trkpt lat="50.09548" lon="3.57717">
        <ele>132.32</ele>
        <time>2020-07-23T08:30:13Z</time>
      </trkpt>
      <trkpt lat="50.09556" lon="3.57695">
        <ele>131.84</ele>
        <time>2020-07-23T08:30:15Z</time>
      </trkpt>
      <trkpt lat="50.09574" lon="3.57629">
        <ele>133.28</ele>
        <time>2020-07-23T08:30:21Z</time>
      </trkpt>
      <trkpt lat="50.09604" lon="3.57532">
        <ele>136.16</ele>
        <time>2020-07-23T08:30:32Z</time>
      </trkpt>
      <trkpt lat="50.09644" lon="3.57401">
        <ele>139.53</ele>
        <time>2020-07-23T08:30:49Z</time>
      </trkpt>
      <trkpt lat="50.09692" lon="3.57243">
        <ele>141.45</ele>
        <time>2020-07-23T08:31:11Z</time>
      </trkpt>
      <trkpt lat="50.09727" lon="3.5713">
        <ele>141.93</ele>
        <time>2020-07-23T08:31:25Z</time>
      </trkpt>
      <trkpt lat="50.09729" lon="3.57122">
        <ele>141.93</ele>
        <time>2020-07-23T08:31:26Z</time>
      </trkpt>
      <trkpt lat="50.09772" lon="3.56979">
        <ele>142.89</ele>
        <time>2020-07-23T08:31:45Z</time>
      </trkpt>
      <trkpt lat="50.09801" lon="3.56896">
        <ele>143.85</ele>
        <time>2020-07-23T08:31:57Z</time>
      </trkpt>
      <trkpt lat="50.09804" lon="3.5689">
        <ele>143.85</ele>
        <time>2020-07-23T08:31:58Z</time>
      </trkpt>
      <trkpt lat="50.09813" lon="3.56872">
        <ele>143.85</ele>
        <time>2020-07-23T08:32:01Z</time>
      </trkpt>
      <trkpt lat="50.09816" lon="3.56867">
        <ele>144.34</ele>
        <time>2020-07-23T08:32:02Z</time>
      </trkpt>
      <trkpt lat="50.0982" lon="3.56863">
        <ele>144.34</ele>
        <time>2020-07-23T08:32:03Z</time>
      </trkpt>
      <trkpt lat="50.09824" lon="3.56858">
        <ele>144.34</ele>
        <time>2020-07-23T08:32:04Z</time>
      </trkpt>
      <trkpt lat="50.09828" lon="3.56855">
        <ele>144.34</ele>
        <time>2020-07-23T08:32:05Z</time>
      </trkpt>
      <trkpt lat="50.09832" lon="3.56852">
        <ele>144.82</ele>
        <time>2020-07-23T08:32:06Z</time>
      </trkpt>
      <trkpt lat="50.09841" lon="3.56849">
        <ele>144.82</ele>
        <time>2020-07-23T08:32:08Z</time>
      </trkpt>
      <trkpt lat="50.09869" lon="3.56831">
        <ele>144.82</ele>
        <time>2020-07-23T08:32:15Z</time>
      </trkpt>
      <trkpt lat="50.09895" lon="3.56787">
        <ele>144.82</ele>
        <time>2020-07-23T08:32:22Z</time>
      </trkpt>
      <trkpt lat="50.09972" lon="3.56693">
        <ele>145.3</ele>
        <time>2020-07-23T08:32:38Z</time>
      </trkpt>
      <trkpt lat="50.10062" lon="3.56587">
        <ele>146.26</ele>
        <time>2020-07-23T08:32:56Z</time>
      </trkpt>
      <trkpt lat="50.10142" lon="3.56492">
        <ele>146.74</ele>
        <time>2020-07-23T08:33:13Z</time>
      </trkpt>
      <trkpt lat="50.10209" lon="3.56412">
        <ele>146.74</ele>
        <time>2020-07-23T08:33:28Z</time>
      </trkpt>
      <trkpt lat="50.10295" lon="3.56309">
        <ele>144.34</ele>
        <time>2020-07-23T08:33:46Z</time>
      </trkpt>
      <trkpt lat="50.103" lon="3.56303">
        <ele>144.34</ele>
        <time>2020-07-23T08:33:47Z</time>
      </trkpt>
      <trkpt lat="50.10334" lon="3.56265">
        <ele>144.34</ele>
        <time>2020-07-23T08:33:54Z</time>
      </trkpt>
      <trkpt lat="50.10339" lon="3.5626">
        <ele>144.34</ele>
        <time>2020-07-23T08:33:55Z</time>
      </trkpt>
      <trkpt lat="50.10345" lon="3.56257">
        <ele>144.34</ele>
        <time>2020-07-23T08:33:56Z</time>
      </trkpt>
      <trkpt lat="50.10351" lon="3.56257">
        <ele>144.34</ele>
        <time>2020-07-23T08:33:57Z</time>
      </trkpt>
      <trkpt lat="50.10356" lon="3.5626">
        <ele>144.34</ele>
        <time>2020-07-23T08:33:58Z</time>
      </trkpt>
      <trkpt lat="50.10365" lon="3.56282">
        <ele>144.34</ele>
        <time>2020-07-23T08:34:01Z</time>
      </trkpt>
      <trkpt lat="50.10397" lon="3.56476">
        <ele>143.37</ele>
        <time>2020-07-23T08:34:23Z</time>
      </trkpt>
      <trkpt lat="50.10438" lon="3.56609">
        <ele>141.45</ele>
        <time>2020-07-23T08:34:38Z</time>
      </trkpt>
      <trkpt lat="50.10487" lon="3.56727">
        <ele>138.09</ele>
        <time>2020-07-23T08:34:50Z</time>
      </trkpt>
      <trkpt lat="50.1057" lon="3.56881">
        <ele>135.2</ele>
        <time>2020-07-23T08:35:06Z</time>
      </trkpt>
      <trkpt lat="50.10616" lon="3.57017">
        <ele>133.28</ele>
        <time>2020-07-23T08:35:19Z</time>
      </trkpt>
      <trkpt lat="50.1068" lon="3.57117">
        <ele>129.43</ele>
        <time>2020-07-23T08:35:30Z</time>
      </trkpt>
      <trkpt lat="50.10768" lon="3.57214">
        <ele>126.55</ele>
        <time>2020-07-23T08:35:43Z</time>
      </trkpt>
      <trkpt lat="50.10838" lon="3.57289">
        <ele>122.71</ele>
        <time>2020-07-23T08:35:53Z</time>
      </trkpt>
      <trkpt lat="50.10887" lon="3.57353">
        <ele>120.3</ele>
        <time>2020-07-23T08:36:00Z</time>
      </trkpt>
      <trkpt lat="50.10919" lon="3.57407">
        <ele>117.42</ele>
        <time>2020-07-23T08:36:05Z</time>
      </trkpt>
      <trkpt lat="50.10926" lon="3.57418">
        <ele>117.42</ele>
        <time>2020-07-23T08:36:06Z</time>
      </trkpt>
      <trkpt lat="50.10951" lon="3.57465">
        <ele>115.01</ele>
        <time>2020-07-23T08:36:10Z</time>
      </trkpt>
      <trkpt lat="50.10968" lon="3.57505">
        <ele>113.57</ele>
        <time>2020-07-23T08:36:13Z</time>
      </trkpt>
      <trkpt lat="50.10996" lon="3.57628">
        <ele>110.69</ele>
        <time>2020-07-23T08:36:21Z</time>
      </trkpt>
      <trkpt lat="50.10996" lon="3.57801">
        <ele>108.29</ele>
        <time>2020-07-23T08:36:32Z</time>
      </trkpt>
      <trkpt lat="50.10989" lon="3.5796">
        <ele>110.21</ele>
        <time>2020-07-23T08:36:45Z</time>
      </trkpt>
      <trkpt lat="50.10989" lon="3.57995">
        <ele>110.69</ele>
        <time>2020-07-23T08:36:49Z</time>
      </trkpt>
      <trkpt lat="50.11001" lon="3.5807">
        <ele>114.05</ele>
        <time>2020-07-23T08:36:59Z</time>
      </trkpt>
      <trkpt lat="50.11023" lon="3.58157">
        <ele>117.42</ele>
        <time>2020-07-23T08:37:12Z</time>
      </trkpt>
      <trkpt lat="50.11025" lon="3.58167">
        <ele>117.9</ele>
        <time>2020-07-23T08:37:14Z</time>
      </trkpt>
      <trkpt lat="50.11039" lon="3.5823">
        <ele>121.26</ele>
        <time>2020-07-23T08:37:26Z</time>
      </trkpt>
      <trkpt lat="50.11043" lon="3.58293">
        <ele>123.67</ele>
        <time>2020-07-23T08:37:41Z</time>
      </trkpt>
      <trkpt lat="50.11042" lon="3.5835">
        <ele>126.55</ele>
        <time>2020-07-23T08:37:54Z</time>
      </trkpt>
      <trkpt lat="50.1104" lon="3.5845">
        <ele>129.43</ele>
        <time>2020-07-23T08:38:14Z</time>
      </trkpt>
      <trkpt lat="50.11041" lon="3.58537">
        <ele>131.84</ele>
        <time>2020-07-23T08:38:32Z</time>
      </trkpt>
      <trkpt lat="50.11049" lon="3.58617">
        <ele>134.24</ele>
        <time>2020-07-23T08:38:48Z</time>
      </trkpt>
      <trkpt lat="50.11059" lon="3.58711">
        <ele>137.13</ele>
        <time>2020-07-23T08:39:06Z</time>
      </trkpt>
      <trkpt lat="50.1107" lon="3.58812">
        <ele>140.49</ele>
        <time>2020-07-23T08:39:25Z</time>
      </trkpt>
      <trkpt lat="50.11082" lon="3.58903">
        <ele>141.93</ele>
        <time>2020-07-23T08:39:41Z</time>
      </trkpt>
      <trkpt lat="50.11099" lon="3.59023">
        <ele>142.41</ele>
        <time>2020-07-23T08:39:56Z</time>
      </trkpt>
      <trkpt lat="50.11119" lon="3.59155">
        <ele>143.37</ele>
        <time>2020-07-23T08:40:11Z</time>
      </trkpt>
      <trkpt lat="50.11121" lon="3.59172">
        <ele>143.85</ele>
        <time>2020-07-23T08:40:13Z</time>
      </trkpt>
      <trkpt lat="50.11142" lon="3.59308">
        <ele>145.3</ele>
        <time>2020-07-23T08:40:29Z</time>
      </trkpt>
      <trkpt lat="50.1116" lon="3.59365">
        <ele>145.3</ele>
        <time>2020-07-23T08:40:36Z</time>
      </trkpt>
      <trkpt lat="50.11216" lon="3.59489">
        <ele>143.85</ele>
        <time>2020-07-23T08:40:50Z</time>
      </trkpt>
      <trkpt lat="50.11262" lon="3.59627">
        <ele>143.85</ele>
        <time>2020-07-23T08:41:05Z</time>
      </trkpt>
      <trkpt lat="50.11272" lon="3.59667">
        <ele>144.82</ele>
        <time>2020-07-23T08:41:10Z</time>
      </trkpt>
      <trkpt lat="50.113" lon="3.59777">
        <ele>147.7</ele>
        <time>2020-07-23T08:41:23Z</time>
      </trkpt>
      <trkpt lat="50.11316" lon="3.59849">
        <ele>149.62</ele>
        <time>2020-07-23T08:41:32Z</time>
      </trkpt>
      <trkpt lat="50.11317" lon="3.59864">
        <ele>150.1</ele>
        <time>2020-07-23T08:41:34Z</time>
      </trkpt>
      <trkpt lat="50.11337" lon="3.59987">
        <ele>151.54</ele>
        <time>2020-07-23T08:41:51Z</time>
      </trkpt>
      <trkpt lat="50.11346" lon="3.60051">
        <ele>150.58</ele>
        <time>2020-07-23T08:41:58Z</time>
      </trkpt>
      <trkpt lat="50.11371" lon="3.60222">
        <ele>149.62</ele>
        <time>2020-07-23T08:42:14Z</time>
      </trkpt>
      <trkpt lat="50.11381" lon="3.60314">
        <ele>150.58</ele>
        <time>2020-07-23T08:42:23Z</time>
      </trkpt>
      <trkpt lat="50.11388" lon="3.60407">
        <ele>153.95</ele>
        <time>2020-07-23T08:42:35Z</time>
      </trkpt>
      <trkpt lat="50.11389" lon="3.60414">
        <ele>153.95</ele>
        <time>2020-07-23T08:42:36Z</time>
      </trkpt>
      <trkpt lat="50.1139" lon="3.60421">
        <ele>153.95</ele>
        <time>2020-07-23T08:42:37Z</time>
      </trkpt>
      <trkpt lat="50.11399" lon="3.60542">
        <ele>154.91</ele>
        <time>2020-07-23T08:42:53Z</time>
      </trkpt>
      <trkpt lat="50.11412" lon="3.6069">
        <ele>154.91</ele>
        <time>2020-07-23T08:43:10Z</time>
      </trkpt>
      <trkpt lat="50.11423" lon="3.6083">
        <ele>156.35</ele>
        <time>2020-07-23T08:43:28Z</time>
      </trkpt>
      <trkpt lat="50.11432" lon="3.60941">
        <ele>154.91</ele>
        <time>2020-07-23T08:43:40Z</time>
      </trkpt>
      <trkpt lat="50.11446" lon="3.61111">
        <ele>152.03</ele>
        <time>2020-07-23T08:43:54Z</time>
      </trkpt>
      <trkpt lat="50.11463" lon="3.61354">
        <ele>149.62</ele>
        <time>2020-07-23T08:44:12Z</time>
      </trkpt>
      <trkpt lat="50.11475" lon="3.61504">
        <ele>148.66</ele>
        <time>2020-07-23T08:44:26Z</time>
      </trkpt>
      <trkpt lat="50.11482" lon="3.61597">
        <ele>148.18</ele>
        <time>2020-07-23T08:44:36Z</time>
      </trkpt>
      <trkpt lat="50.11496" lon="3.61774">
        <ele>149.14</ele>
        <time>2020-07-23T08:44:55Z</time>
      </trkpt>
      <trkpt lat="50.1151" lon="3.61952">
        <ele>150.58</ele>
        <time>2020-07-23T08:45:17Z</time>
      </trkpt>
      <trkpt lat="50.11514" lon="3.62003">
        <ele>152.51</ele>
        <time>2020-07-23T08:45:24Z</time>
      </trkpt>
      <trkpt lat="50.11515" lon="3.62009">
        <ele>152.51</ele>
        <time>2020-07-23T08:45:25Z</time>
      </trkpt>
      <trkpt lat="50.1152" lon="3.62097">
        <ele>153.47</ele>
        <time>2020-07-23T08:45:38Z</time>
      </trkpt>
      <trkpt lat="50.11529" lon="3.62213">
        <ele>151.54</ele>
        <time>2020-07-23T08:45:52Z</time>
      </trkpt>
      <trkpt lat="50.11539" lon="3.62329">
        <ele>148.18</ele>
        <time>2020-07-23T08:46:03Z</time>
      </trkpt>
      <trkpt lat="50.11549" lon="3.62447">
        <ele>145.78</ele>
        <time>2020-07-23T08:46:13Z</time>
      </trkpt>
      <trkpt lat="50.11551" lon="3.62456">
        <ele>145.78</ele>
        <time>2020-07-23T08:46:14Z</time>
      </trkpt>
      <trkpt lat="50.11553" lon="3.62464">
        <ele>145.78</ele>
        <time>2020-07-23T08:46:15Z</time>
      </trkpt>
      <trkpt lat="50.11558" lon="3.62469">
        <ele>145.3</ele>
        <time>2020-07-23T08:46:16Z</time>
      </trkpt>
      <trkpt lat="50.11565" lon="3.62473">
        <ele>145.3</ele>
        <time>2020-07-23T08:46:17Z</time>
      </trkpt>
      <trkpt lat="50.11569" lon="3.62473">
        <ele>145.3</ele>
        <time>2020-07-23T08:46:18Z</time>
      </trkpt>
      <trkpt lat="50.11575" lon="3.62473">
        <ele>145.3</ele>
        <time>2020-07-23T08:46:19Z</time>
      </trkpt>
      <trkpt lat="50.11599" lon="3.62471">
        <ele>145.3</ele>
        <time>2020-07-23T08:46:23Z</time>
      </trkpt>
      <trkpt lat="50.11605" lon="3.62471">
        <ele>145.3</ele>
        <time>2020-07-23T08:46:24Z</time>
      </trkpt>
      <trkpt lat="50.1161" lon="3.62471">
        <ele>145.3</ele>
        <time>2020-07-23T08:46:25Z</time>
      </trkpt>
      <trkpt lat="50.1164" lon="3.62471">
        <ele>147.22</ele>
        <time>2020-07-23T08:46:31Z</time>
      </trkpt>
      <trkpt lat="50.11652" lon="3.62472">
        <ele>147.7</ele>
        <time>2020-07-23T08:46:34Z</time>
      </trkpt>
      <trkpt lat="50.1167" lon="3.6247">
        <ele>148.18</ele>
        <time>2020-07-23T08:46:38Z</time>
      </trkpt>
      <trkpt lat="50.11691" lon="3.62469">
        <ele>149.62</ele>
        <time>2020-07-23T08:46:42Z</time>
      </trkpt>
      <trkpt lat="50.11706" lon="3.6247">
        <ele>150.1</ele>
        <time>2020-07-23T08:46:45Z</time>
      </trkpt>
      <trkpt lat="50.11712" lon="3.62472">
        <ele>150.1</ele>
        <time>2020-07-23T08:46:46Z</time>
      </trkpt>
      <trkpt lat="50.11717" lon="3.62474">
        <ele>150.1</ele>
        <time>2020-07-23T08:46:47Z</time>
      </trkpt>
      <trkpt lat="50.11721" lon="3.62477">
        <ele>150.58</ele>
        <time>2020-07-23T08:46:48Z</time>
      </trkpt>
      <trkpt lat="50.11725" lon="3.62481">
        <ele>150.58</ele>
        <time>2020-07-23T08:46:49Z</time>
      </trkpt>
      <trkpt lat="50.11729" lon="3.62485">
        <ele>150.58</ele>
        <time>2020-07-23T08:46:50Z</time>
      </trkpt>
      <trkpt lat="50.11732" lon="3.6249">
        <ele>151.06</ele>
        <time>2020-07-23T08:46:51Z</time>
      </trkpt>
      <trkpt lat="50.11736" lon="3.62494">
        <ele>151.06</ele>
        <time>2020-07-23T08:46:52Z</time>
      </trkpt>
      <trkpt lat="50.11756" lon="3.62531">
        <ele>152.51</ele>
        <time>2020-07-23T08:46:58Z</time>
      </trkpt>
      <trkpt lat="50.1176" lon="3.62537">
        <ele>152.51</ele>
        <time>2020-07-23T08:46:59Z</time>
      </trkpt>
      <trkpt lat="50.11801" lon="3.62607">
        <ele>153.95</ele>
        <time>2020-07-23T08:47:13Z</time>
      </trkpt>
      <trkpt lat="50.11844" lon="3.62694">
        <ele>154.43</ele>
        <time>2020-07-23T08:47:29Z</time>
      </trkpt>
      <trkpt lat="50.11913" lon="3.62827">
        <ele>155.39</ele>
        <time>2020-07-23T08:47:50Z</time>
      </trkpt>
      <trkpt lat="50.11983" lon="3.62966">
        <ele>157.31</ele>
        <time>2020-07-23T08:48:11Z</time>
      </trkpt>
      <trkpt lat="50.12032" lon="3.63063">
        <ele>157.79</ele>
        <time>2020-07-23T08:48:29Z</time>
      </trkpt>
      <trkpt lat="50.12079" lon="3.63156">
        <ele>159.24</ele>
        <time>2020-07-23T08:48:47Z</time>
      </trkpt>
      <trkpt lat="50.12081" lon="3.63163">
        <ele>159.24</ele>
        <time>2020-07-23T08:48:48Z</time>
      </trkpt>
      <trkpt lat="50.12084" lon="3.6317">
        <ele>159.24</ele>
        <time>2020-07-23T08:48:49Z</time>
      </trkpt>
      <trkpt lat="50.12087" lon="3.63177">
        <ele>159.24</ele>
        <time>2020-07-23T08:48:50Z</time>
      </trkpt>
      <trkpt lat="50.1209" lon="3.63183">
        <ele>159.24</ele>
        <time>2020-07-23T08:48:51Z</time>
      </trkpt>
      <trkpt lat="50.1215" lon="3.63303">
        <ele>159.24</ele>
        <time>2020-07-23T08:49:10Z</time>
      </trkpt>
      <trkpt lat="50.12157" lon="3.63317">
        <ele>157.79</ele>
        <time>2020-07-23T08:49:12Z</time>
      </trkpt>
      <trkpt lat="50.12164" lon="3.63331">
        <ele>156.35</ele>
        <time>2020-07-23T08:49:14Z</time>
      </trkpt>
      <trkpt lat="50.1221" lon="3.63404">
        <ele>154.43</ele>
        <time>2020-07-23T08:49:24Z</time>
      </trkpt>
      <trkpt lat="50.12272" lon="3.63477">
        <ele>152.51</ele>
        <time>2020-07-23T08:49:35Z</time>
      </trkpt>
      <trkpt lat="50.1236" lon="3.63554">
        <ele>153.47</ele>
        <time>2020-07-23T08:49:51Z</time>
      </trkpt>
      <trkpt lat="50.12406" lon="3.63594">
        <ele>154.91</ele>
        <time>2020-07-23T08:50:01Z</time>
      </trkpt>
      <trkpt lat="50.12411" lon="3.63598">
        <ele>154.91</ele>
        <time>2020-07-23T08:50:02Z</time>
      </trkpt>
      <trkpt lat="50.12484" lon="3.6366">
        <ele>155.39</ele>
        <time>2020-07-23T08:50:19Z</time>
      </trkpt>
      <trkpt lat="50.1256" lon="3.63733">
        <ele>155.87</ele>
        <time>2020-07-23T08:50:37Z</time>
      </trkpt>
      <trkpt lat="50.12608" lon="3.6378">
        <ele>156.35</ele>
        <time>2020-07-23T08:50:51Z</time>
      </trkpt>
      <trkpt lat="50.12681" lon="3.6383">
        <ele>157.79</ele>
        <time>2020-07-23T08:51:09Z</time>
      </trkpt>
      <trkpt lat="50.12776" lon="3.63868">
        <ele>158.27</ele>
        <time>2020-07-23T08:51:29Z</time>
      </trkpt>
      <trkpt lat="50.12866" lon="3.63896">
        <ele>158.27</ele>
        <time>2020-07-23T08:51:47Z</time>
      </trkpt>
      <trkpt lat="50.12951" lon="3.63926">
        <ele>155.87</ele>
        <time>2020-07-23T08:52:01Z</time>
      </trkpt>
      <trkpt lat="50.12956" lon="3.63927">
        <ele>155.39</ele>
        <time>2020-07-23T08:52:02Z</time>
      </trkpt>
      <trkpt lat="50.12961" lon="3.6393">
        <ele>155.39</ele>
        <time>2020-07-23T08:52:03Z</time>
      </trkpt>
      <trkpt lat="50.12966" lon="3.63933">
        <ele>155.39</ele>
        <time>2020-07-23T08:52:04Z</time>
      </trkpt>
      <trkpt lat="50.13065" lon="3.63958">
        <ele>155.39</ele>
        <time>2020-07-23T08:52:21Z</time>
      </trkpt>
      <trkpt lat="50.13119" lon="3.6397">
        <ele>156.35</ele>
        <time>2020-07-23T08:52:31Z</time>
      </trkpt>
      <trkpt lat="50.13152" lon="3.63975">
        <ele>157.31</ele>
        <time>2020-07-23T08:52:37Z</time>
      </trkpt>
      <trkpt lat="50.13157" lon="3.63976">
        <ele>157.31</ele>
        <time>2020-07-23T08:52:38Z</time>
      </trkpt>
      <trkpt lat="50.13206" lon="3.63985">
        <ele>159.24</ele>
        <time>2020-07-23T08:52:46Z</time>
      </trkpt>
      <trkpt lat="50.13246" lon="3.63995">
        <ele>160.2</ele>
        <time>2020-07-23T08:52:53Z</time>
      </trkpt>
      <trkpt lat="50.13252" lon="3.63996">
        <ele>160.68</ele>
        <time>2020-07-23T08:52:54Z</time>
      </trkpt>
      <trkpt lat="50.13274" lon="3.64001">
        <ele>161.16</ele>
        <time>2020-07-23T08:52:58Z</time>
      </trkpt>
      <trkpt lat="50.13279" lon="3.64002">
        <ele>161.64</ele>
        <time>2020-07-23T08:52:59Z</time>
      </trkpt>
      <trkpt lat="50.1329" lon="3.64006">
        <ele>162.12</ele>
        <time>2020-07-23T08:53:01Z</time>
      </trkpt>
      <trkpt lat="50.13295" lon="3.64007">
        <ele>162.12</ele>
        <time>2020-07-23T08:53:02Z</time>
      </trkpt>
      <trkpt lat="50.13329" lon="3.64035">
        <ele>163.56</ele>
        <time>2020-07-23T08:53:12Z</time>
      </trkpt>
      <trkpt lat="50.13333" lon="3.64065">
        <ele>163.56</ele>
        <time>2020-07-23T08:53:17Z</time>
      </trkpt>
      <trkpt lat="50.13337" lon="3.64142">
        <ele>163.56</ele>
        <time>2020-07-23T08:53:28Z</time>
      </trkpt>
      <trkpt lat="50.13352" lon="3.64254">
        <ele>163.56</ele>
        <time>2020-07-23T08:53:42Z</time>
      </trkpt>
      <trkpt lat="50.1338" lon="3.644">
        <ele>162.12</ele>
        <time>2020-07-23T08:53:59Z</time>
      </trkpt>
      <trkpt lat="50.13395" lon="3.64553">
        <ele>162.12</ele>
        <time>2020-07-23T08:54:15Z</time>
      </trkpt>
      <trkpt lat="50.1341" lon="3.64657">
        <ele>162.12</ele>
        <time>2020-07-23T08:54:27Z</time>
      </trkpt>
      <trkpt lat="50.1341" lon="3.64666">
        <ele>162.12</ele>
        <time>2020-07-23T08:54:28Z</time>
      </trkpt>
      <trkpt lat="50.13412" lon="3.64676">
        <ele>162.12</ele>
        <time>2020-07-23T08:54:29Z</time>
      </trkpt>
      <trkpt lat="50.13432" lon="3.64837">
        <ele>163.56</ele>
        <time>2020-07-23T08:54:46Z</time>
      </trkpt>
      <trkpt lat="50.13467" lon="3.64956">
        <ele>165</ele>
        <time>2020-07-23T08:55:01Z</time>
      </trkpt>
      <trkpt lat="50.135" lon="3.65087">
        <ele>165</ele>
        <time>2020-07-23T08:55:17Z</time>
      </trkpt>
      <trkpt lat="50.13508" lon="3.65141">
        <ele>163.56</ele>
        <time>2020-07-23T08:55:23Z</time>
      </trkpt>
      <trkpt lat="50.13526" lon="3.65279">
        <ele>163.56</ele>
        <time>2020-07-23T08:55:40Z</time>
      </trkpt>
      <trkpt lat="50.13556" lon="3.65406">
        <ele>163.56</ele>
        <time>2020-07-23T08:55:56Z</time>
      </trkpt>
      <trkpt lat="50.13597" lon="3.65549">
        <ele>163.56</ele>
        <time>2020-07-23T08:56:14Z</time>
      </trkpt>
      <trkpt lat="50.13634" lon="3.65625">
        <ele>165</ele>
        <time>2020-07-23T08:56:25Z</time>
      </trkpt>
      <trkpt lat="50.13687" lon="3.65713">
        <ele>166.93</ele>
        <time>2020-07-23T08:56:40Z</time>
      </trkpt>
      <trkpt lat="50.13713" lon="3.65745">
        <ele>167.41</ele>
        <time>2020-07-23T08:56:47Z</time>
      </trkpt>
      <trkpt lat="50.13749" lon="3.658">
        <ele>167.41</ele>
        <time>2020-07-23T08:56:59Z</time>
      </trkpt>
      <trkpt lat="50.13749" lon="3.65815">
        <ele>167.41</ele>
        <time>2020-07-23T08:57:01Z</time>
      </trkpt>
      <trkpt lat="50.13746" lon="3.65941">
        <ele>167.41</ele>
        <time>2020-07-23T08:57:16Z</time>
      </trkpt>
      <trkpt lat="50.13746" lon="3.65949">
        <ele>167.41</ele>
        <time>2020-07-23T08:57:17Z</time>
      </trkpt>
      <trkpt lat="50.13737" lon="3.6603">
        <ele>167.41</ele>
        <time>2020-07-23T08:57:27Z</time>
      </trkpt>
      <trkpt lat="50.13711" lon="3.66155">
        <ele>165.96</ele>
        <time>2020-07-23T08:57:42Z</time>
      </trkpt>
      <trkpt lat="50.13655" lon="3.66299">
        <ele>165</ele>
        <time>2020-07-23T08:58:00Z</time>
      </trkpt>
      <trkpt lat="50.13608" lon="3.66422">
        <ele>164.52</ele>
        <time>2020-07-23T08:58:15Z</time>
      </trkpt>
      <trkpt lat="50.13574" lon="3.66517">
        <ele>165.48</ele>
        <time>2020-07-23T08:58:27Z</time>
      </trkpt>
      <trkpt lat="50.13553" lon="3.66576">
        <ele>166.93</ele>
        <time>2020-07-23T08:58:35Z</time>
      </trkpt>
      <trkpt lat="50.13551" lon="3.66584">
        <ele>166.93</ele>
        <time>2020-07-23T08:58:36Z</time>
      </trkpt>
      <trkpt lat="50.13539" lon="3.66619">
        <ele>166.93</ele>
        <time>2020-07-23T08:58:41Z</time>
      </trkpt>
      <trkpt lat="50.13536" lon="3.66626">
        <ele>166.93</ele>
        <time>2020-07-23T08:58:42Z</time>
      </trkpt>
      <trkpt lat="50.13534" lon="3.66634">
        <ele>166.93</ele>
        <time>2020-07-23T08:58:43Z</time>
      </trkpt>
      <trkpt lat="50.13532" lon="3.66642">
        <ele>166.93</ele>
        <time>2020-07-23T08:58:44Z</time>
      </trkpt>
      <trkpt lat="50.13529" lon="3.6665">
        <ele>166.93</ele>
        <time>2020-07-23T08:58:45Z</time>
      </trkpt>
      <trkpt lat="50.13485" lon="3.66772">
        <ele>167.41</ele>
        <time>2020-07-23T08:59:01Z</time>
      </trkpt>
      <trkpt lat="50.13417" lon="3.66868">
        <ele>165.96</ele>
        <time>2020-07-23T08:59:17Z</time>
      </trkpt>
      <trkpt lat="50.13384" lon="3.66905">
        <ele>165</ele>
        <time>2020-07-23T08:59:24Z</time>
      </trkpt>
      <trkpt lat="50.1338" lon="3.6691">
        <ele>165</ele>
        <time>2020-07-23T08:59:25Z</time>
      </trkpt>
      <trkpt lat="50.13339" lon="3.66957">
        <ele>163.56</ele>
        <time>2020-07-23T08:59:34Z</time>
      </trkpt>
      <trkpt lat="50.13335" lon="3.66964">
        <ele>163.56</ele>
        <time>2020-07-23T08:59:35Z</time>
      </trkpt>
      <trkpt lat="50.13291" lon="3.67092">
        <ele>160.68</ele>
        <time>2020-07-23T08:59:49Z</time>
      </trkpt>
      <trkpt lat="50.13241" lon="3.67219">
        <ele>159.24</ele>
        <time>2020-07-23T09:00:04Z</time>
      </trkpt>
      <trkpt lat="50.13189" lon="3.67353">
        <ele>158.75</ele>
        <time>2020-07-23T09:00:21Z</time>
      </trkpt>
      <trkpt lat="50.1315" lon="3.67459">
        <ele>157.79</ele>
        <time>2020-07-23T09:00:35Z</time>
      </trkpt>
      <trkpt lat="50.13147" lon="3.67467">
        <ele>157.79</ele>
        <time>2020-07-23T09:00:36Z</time>
      </trkpt>
      <trkpt lat="50.13105" lon="3.67613">
        <ele>155.87</ele>
        <time>2020-07-23T09:00:54Z</time>
      </trkpt>
      <trkpt lat="50.13067" lon="3.6777">
        <ele>154.43</ele>
        <time>2020-07-23T09:01:12Z</time>
      </trkpt>
      <trkpt lat="50.13036" lon="3.67897">
        <ele>152.99</ele>
        <time>2020-07-23T09:01:26Z</time>
      </trkpt>
      <trkpt lat="50.13011" lon="3.68036">
        <ele>151.06</ele>
        <time>2020-07-23T09:01:40Z</time>
      </trkpt>
      <trkpt lat="50.13009" lon="3.68046">
        <ele>151.06</ele>
        <time>2020-07-23T09:01:41Z</time>
      </trkpt>
      <trkpt lat="50.13001" lon="3.68097">
        <ele>150.1</ele>
        <time>2020-07-23T09:01:46Z</time>
      </trkpt>
      <trkpt lat="50.12996" lon="3.68118">
        <ele>149.62</ele>
        <time>2020-07-23T09:01:48Z</time>
      </trkpt>
      <trkpt lat="50.12975" lon="3.68257">
        <ele>147.22</ele>
        <time>2020-07-23T09:02:01Z</time>
      </trkpt>
      <trkpt lat="50.12972" lon="3.68275">
        <ele>147.22</ele>
        <time>2020-07-23T09:02:03Z</time>
      </trkpt>
      <trkpt lat="50.12968" lon="3.68283">
        <ele>146.74</ele>
        <time>2020-07-23T09:02:04Z</time>
      </trkpt>
      <trkpt lat="50.12956" lon="3.68307">
        <ele>146.74</ele>
        <time>2020-07-23T09:02:07Z</time>
      </trkpt>
      <trkpt lat="50.1295" lon="3.68312">
        <ele>146.74</ele>
        <time>2020-07-23T09:02:08Z</time>
      </trkpt>
      <trkpt lat="50.12943" lon="3.68315">
        <ele>146.74</ele>
        <time>2020-07-23T09:02:09Z</time>
      </trkpt>
      <trkpt lat="50.12895" lon="3.68341">
        <ele>149.14</ele>
        <time>2020-07-23T09:02:19Z</time>
      </trkpt>
      <trkpt lat="50.12862" lon="3.68385">
        <ele>149.14</ele>
        <time>2020-07-23T09:02:28Z</time>
      </trkpt>
      <trkpt lat="50.1285" lon="3.68408">
        <ele>146.74</ele>
        <time>2020-07-23T09:02:31Z</time>
      </trkpt>
      <trkpt lat="50.12832" lon="3.68473">
        <ele>143.85</ele>
        <time>2020-07-23T09:02:37Z</time>
      </trkpt>
      <trkpt lat="50.12829" lon="3.68486">
        <ele>143.85</ele>
        <time>2020-07-23T09:02:38Z</time>
      </trkpt>
      <trkpt lat="50.12821" lon="3.68526">
        <ele>141.93</ele>
        <time>2020-07-23T09:02:41Z</time>
      </trkpt>
      <trkpt lat="50.12806" lon="3.68592">
        <ele>139.53</ele>
        <time>2020-07-23T09:02:46Z</time>
      </trkpt>
      <trkpt lat="50.12802" lon="3.68601">
        <ele>139.53</ele>
        <time>2020-07-23T09:02:47Z</time>
      </trkpt>
      <trkpt lat="50.12799" lon="3.68609">
        <ele>139.05</ele>
        <time>2020-07-23T09:02:48Z</time>
      </trkpt>
      <trkpt lat="50.12794" lon="3.68614">
        <ele>139.05</ele>
        <time>2020-07-23T09:02:49Z</time>
      </trkpt>
      <trkpt lat="50.12788" lon="3.68614">
        <ele>139.05</ele>
        <time>2020-07-23T09:02:50Z</time>
      </trkpt>
      <trkpt lat="50.12783" lon="3.6861">
        <ele>138.57</ele>
        <time>2020-07-23T09:02:51Z</time>
      </trkpt>
      <trkpt lat="50.12779" lon="3.68603">
        <ele>138.09</ele>
        <time>2020-07-23T09:02:52Z</time>
      </trkpt>
      <trkpt lat="50.12776" lon="3.68594">
        <ele>138.09</ele>
        <time>2020-07-23T09:02:53Z</time>
      </trkpt>
      <trkpt lat="50.12772" lon="3.68585">
        <ele>138.57</ele>
        <time>2020-07-23T09:02:54Z</time>
      </trkpt>
      <trkpt lat="50.12767" lon="3.68576">
        <ele>138.57</ele>
        <time>2020-07-23T09:02:55Z</time>
      </trkpt>
      <trkpt lat="50.12754" lon="3.6855">
        <ele>138.57</ele>
        <time>2020-07-23T09:02:58Z</time>
      </trkpt>
      <trkpt lat="50.1275" lon="3.68542">
        <ele>138.09</ele>
        <time>2020-07-23T09:02:59Z</time>
      </trkpt>
      <trkpt lat="50.12745" lon="3.68534">
        <ele>138.57</ele>
        <time>2020-07-23T09:03:00Z</time>
      </trkpt>
      <trkpt lat="50.1274" lon="3.68527">
        <ele>138.57</ele>
        <time>2020-07-23T09:03:01Z</time>
      </trkpt>
      <trkpt lat="50.12737" lon="3.68519">
        <ele>138.57</ele>
        <time>2020-07-23T09:03:02Z</time>
      </trkpt>
      <trkpt lat="50.12736" lon="3.68509">
        <ele>138.57</ele>
        <time>2020-07-23T09:03:03Z</time>
      </trkpt>
      <trkpt lat="50.12737" lon="3.685">
        <ele>138.09</ele>
        <time>2020-07-23T09:03:04Z</time>
      </trkpt>
      <trkpt lat="50.12741" lon="3.68493">
        <ele>138.09</ele>
        <time>2020-07-23T09:03:05Z</time>
      </trkpt>
      <trkpt lat="50.12745" lon="3.68488">
        <ele>138.09</ele>
        <time>2020-07-23T09:03:06Z</time>
      </trkpt>
      <trkpt lat="50.1275" lon="3.68484">
        <ele>138.09</ele>
        <time>2020-07-23T09:03:07Z</time>
      </trkpt>
      <trkpt lat="50.12755" lon="3.68482">
        <ele>138.09</ele>
        <time>2020-07-23T09:03:08Z</time>
      </trkpt>
      <trkpt lat="50.12761" lon="3.68479">
        <ele>138.09</ele>
        <time>2020-07-23T09:03:09Z</time>
      </trkpt>
      <trkpt lat="50.12766" lon="3.68475">
        <ele>138.09</ele>
        <time>2020-07-23T09:03:10Z</time>
      </trkpt>
      <trkpt lat="50.12772" lon="3.6847">
        <ele>138.09</ele>
        <time>2020-07-23T09:03:11Z</time>
      </trkpt>
      <trkpt lat="50.12777" lon="3.68465">
        <ele>138.09</ele>
        <time>2020-07-23T09:03:12Z</time>
      </trkpt>
      <trkpt lat="50.12793" lon="3.68452">
        <ele>139.53</ele>
        <time>2020-07-23T09:03:15Z</time>
      </trkpt>
      <trkpt lat="50.12797" lon="3.68447">
        <ele>139.53</ele>
        <time>2020-07-23T09:03:16Z</time>
      </trkpt>
      <trkpt lat="50.12799" lon="3.68439">
        <ele>139.53</ele>
        <time>2020-07-23T09:03:17Z</time>
      </trkpt>
      <trkpt lat="50.12799" lon="3.68431">
        <ele>139.53</ele>
        <time>2020-07-23T09:03:18Z</time>
      </trkpt>
      <trkpt lat="50.12797" lon="3.68423">
        <ele>139.53</ele>
        <time>2020-07-23T09:03:19Z</time>
      </trkpt>
      <trkpt lat="50.12793" lon="3.68415">
        <ele>139.53</ele>
        <time>2020-07-23T09:03:20Z</time>
      </trkpt>
      <trkpt lat="50.1279" lon="3.68407">
        <ele>139.53</ele>
        <time>2020-07-23T09:03:21Z</time>
      </trkpt>
      <trkpt lat="50.12788" lon="3.68398">
        <ele>140.01</ele>
        <time>2020-07-23T09:03:22Z</time>
      </trkpt>
      <trkpt lat="50.12784" lon="3.68389">
        <ele>140.01</ele>
        <time>2020-07-23T09:03:23Z</time>
      </trkpt>
      <trkpt lat="50.12781" lon="3.68379">
        <ele>140.01</ele>
        <time>2020-07-23T09:03:24Z</time>
      </trkpt>
      <trkpt lat="50.12778" lon="3.68369">
        <ele>140.01</ele>
        <time>2020-07-23T09:03:25Z</time>
      </trkpt>
      <trkpt lat="50.12714" lon="3.68183">
        <ele>139.53</ele>
        <time>2020-07-23T09:03:42Z</time>
      </trkpt>
      <trkpt lat="50.12704" lon="3.68162">
        <ele>138.09</ele>
        <time>2020-07-23T09:03:44Z</time>
      </trkpt>
      <trkpt lat="50.12641" lon="3.68025">
        <ele>137.61</ele>
        <time>2020-07-23T09:03:56Z</time>
      </trkpt>
      <trkpt lat="50.12575" lon="3.67905">
        <ele>138.09</ele>
        <time>2020-07-23T09:04:08Z</time>
      </trkpt>
      <trkpt lat="50.12563" lon="3.67893">
        <ele>138.09</ele>
        <time>2020-07-23T09:04:10Z</time>
      </trkpt>
      <trkpt lat="50.12557" lon="3.67889">
        <ele>138.09</ele>
        <time>2020-07-23T09:04:11Z</time>
      </trkpt>
      <trkpt lat="50.12538" lon="3.67878">
        <ele>138.09</ele>
        <time>2020-07-23T09:04:14Z</time>
      </trkpt>
      <trkpt lat="50.12511" lon="3.67849">
        <ele>138.09</ele>
        <time>2020-07-23T09:04:20Z</time>
      </trkpt>
      <trkpt lat="50.12507" lon="3.67846">
        <ele>137.61</ele>
        <time>2020-07-23T09:04:21Z</time>
      </trkpt>
      <trkpt lat="50.12503" lon="3.67842">
        <ele>137.61</ele>
        <time>2020-07-23T09:04:22Z</time>
      </trkpt>
      <trkpt lat="50.12489" lon="3.67826">
        <ele>137.61</ele>
        <time>2020-07-23T09:04:26Z</time>
      </trkpt>
      <trkpt lat="50.12479" lon="3.67809">
        <ele>137.61</ele>
        <time>2020-07-23T09:04:34Z</time>
      </trkpt>
    </trkseg>
  </trk>
</gpx>